Crystalaire, California
Current Conditions -  °F | °C
As of 10:55 AM on Sunday 21 Dec 2014 (Local Time) from KGXA Reporting Station
Clear Clear  
Wind Chill: 57°   Ceiling: Unl
Heat Index: 57°   Visibility: 10mi
Dew Point: 42°   Wind: 9mph
Humidity: 56%   Direction: 260°W
Pressure: 30.18"   Gusts: NA
Location:  34.5233°N, 117.774°W
Report Text: KGXA 211855Z AUTO 26008KT 10SM CLR 14/05 A3018 RMK AO2 WSHFT 1814 SLP228 T01410054 TSNO $
Loading
Personal Weather Stations






























Interactive Weather Map New forecast layout! Learn more

10-Day Weather Forecast

Advertisements
Track Severe Weather on mobile